Beulah, Michigan
Current Conditions -  °F | °C
As of 5:34 PM on Monday 20 Oct 2014 (Local Time) from KFKS Reporting Station
Overcast Overcast  
Wind Chill: 50°   Ceiling: 2100
Heat Index: 50°   Visibility: 10mi
Dew Point: 42°   Wind: 9mph
Humidity: 75%   Direction: 340°NNW
Pressure: 29.88"   Gusts: NA
Location:  44.63°N, 86.09°W
Report Text: KFKS 202134Z AUTO 34008KT 10SM BKN021 OVC026 10/06 A2988 RMK AO2 T01010058
Loading
Personal Weather Stations






























Interactive Weather Map
Tropical Storm Tracking
New forecast layout! Learn more

10-Day Weather Forecast

Advertisements
Track Severe Weather on mobile